Cottonwood, CA (96022)

1:11 PM PDT on September 21, 2014 (GMT -0700)
Lake California Airpark 68CA | Change Station
CLOSE
Current Station
Personal Weather Station
Location: Cottonwood, CA
Elevation: 597 ft
Nearby Weather Stations

Elev 597 ft 40.36 °N, 122.21 °W | Updated 49 seconds ago

Partly Cloudy
Partly Cloudy
79.7 °F
Feels Like 80 °F
N
14.5
Wind Variable Wind from South
Gusts 15.9 mph

Today
High -- | Low -- °F
--% Chance of Precip.
Yesterday
High -- | Low -- °F
Precip. -- in
6:56 AM 7:08 PM
Waning Crescent, 5% visible
Pressure 29.88 in
Visibility 10.0 miles
Clouds Clear
Heat Index 80 °F
Dew Point 58 °F
Humidity 47%
Rainfall 0.00 in
Snow Depth 1 in , 0 in , 2 in
UV 7 out of 12
Pollen 5.80 out of 12
Air Quality Not available.
Flu Activity Not available.
METAR KRDD 211953Z 19009KT 10SM CLR 28/14 A2990 RMK AO2 SLP119 T02780139

More Conditions Fewer Conditions

Pressure 29.88 in
Visibility 10.0 miles
Clouds Clear
Heat Index 80 °F
Dew Point 58 °F
Humidity 47%
Rainfall 0.00 in
Snow Depth 1 in , 0 in , 2 in
UV 7 out of 12
Pollen 5.80 out of 12
Air Quality Not available.
Flu Activity Not available.
METAR KRDD 211953Z 19009KT 10SM CLR 28/14 A2990 RMK AO2 SLP119 T02780139

More Conditions Fewer Conditions

10-Day Weather Forecast

Almanac

Astronomy

Sep. 21, 2014 Rise Set
Actual Time 6:56 AM PDT 7:08 PM PDT
Civil Twilight 6:28 AM PDT 7:35 PM PDT
Nautical Twilight 5:57 AM PDT 8:06 PM PDT
Astronomical Twilight 5:24 AM PDT 8:39 PM PDT
Moon 4:34 AM PDT 5:47 PM PDT
Length of Visible Light 13h 06m
Length of Day
12h 11m
Tomorrow will be 2m 38s shorter.
Waning Crescent, 5% of the Moon is Illuminated
Today
Waning Crescent
Sep 24
New
Oct 1
First Quarter
Oct 8
Full
Oct 15
Last Quarter

Today's Extremes

State Highs State Lows

Community

WunderPhotos

Upload Photos

1,755,243 photos uploaded!

Nearby

Snow Depth

Station Depth Elevation
Leavitt Meadows 1 in 7200 ft
Hagan's Meadow 0 in 8000 ft
CSS Lab 2 in 6900 ft
Burnside Lake 0 in 8139 ft
Adin Mountain 0 in 6200 ft

Earthquake Activity

City Distance Mag. Time & Date
Cloverdale, California 106 miles 2.5 9:15 PM PDT
2014-09-20
Eureka, California 108 miles 3.1 1:33 PM PDT
2014-09-20
The Geysers, California 110 miles 2.5 11:29 PM PDT
2014-09-17
Minimum magnitude displayed is 2.5.

Coastal Water Temperatures

Place Temperature
No Stations Reporting

Nearby Weather Stations